createdAt,value
2019-04-26T00:02:09.929Z,14.70
2019-04-26T00:04:38.986Z,14.50
2019-04-26T00:07:08.121Z,14.40
2019-04-26T00:09:38.617Z,14.10
2019-04-26T00:12:09.833Z,13.90
2019-04-26T00:14:49.850Z,13.80
2019-04-26T00:17:20.074Z,13.70
2019-04-26T00:19:48.819Z,13.80
2019-04-26T00:22:17.546Z,14.10
2019-04-26T00:24:46.270Z,14.00
2019-04-26T00:27:14.846Z,14.10
2019-04-26T00:29:43.357Z,14.10
2019-04-26T00:32:13.169Z,13.80
2019-04-26T00:34:41.727Z,13.80
2019-04-26T00:37:10.178Z,13.60
2019-04-26T00:39:38.865Z,13.70
2019-04-26T00:42:07.318Z,13.60
2019-04-26T00:44:36.236Z,13.60
2019-04-26T00:47:06.308Z,13.40
2019-04-26T00:49:43.484Z,13.60
2019-04-26T00:52:05.961Z,13.40
2019-04-26T00:54:35.463Z,13.10
2019-04-26T00:57:04.363Z,13.10
2019-04-26T00:59:33.370Z,13.30
2019-04-26T01:02:03.988Z,13.30
2019-04-26T01:04:32.411Z,13.10
2019-04-26T01:07:01.005Z,13.40
2019-04-26T01:09:29.439Z,13.40
2019-04-26T01:11:57.870Z,13.20
2019-04-26T01:14:26.282Z,13.20
2019-04-26T01:16:55.030Z,13.10
2019-04-26T01:19:24.652Z,13.20
2019-04-26T01:21:56.152Z,13.20
2019-04-26T01:24:25.601Z,13.40
2019-04-26T01:26:56.005Z,13.30
2019-04-26T01:29:25.975Z,13.20
2019-04-26T01:32:06.723Z,13.30
2019-04-26T01:37:24.631Z,13.20
2019-04-26T01:39:57.838Z,13.20
2019-04-26T01:42:30.884Z,13.20
2019-04-26T01:45:10.005Z,13.30
2019-04-26T01:47:39.551Z,13.30
2019-04-26T01:50:09.131Z,13.40
2019-04-26T01:52:37.715Z,13.60
2019-04-26T01:55:07.731Z,13.60
2019-04-26T01:57:36.708Z,13.20
2019-04-26T02:00:12.424Z,13.40
2019-04-26T02:02:45.143Z,13.20
2019-04-26T02:05:27.902Z,13.00
2019-04-26T02:07:56.662Z,12.70
2019-04-26T02:10:27.042Z,12.90
2019-04-26T02:12:56.489Z,12.70
2019-04-26T02:15:27.452Z,12.80
2019-04-26T02:17:57.643Z,12.80
2019-04-26T02:20:47.486Z,12.90
2019-04-26T02:23:27.869Z,12.70
2019-04-26T02:25:57.123Z,12.70
2019-04-26T02:28:26.660Z,12.60
2019-04-26T02:30:55.458Z,12.40
2019-04-26T02:33:25.338Z,12.80
2019-04-26T02:35:54.624Z,12.60
2019-04-26T02:38:23.216Z,12.30
2019-04-26T02:40:51.882Z,12.40
2019-04-26T02:43:23.240Z,12.70
2019-04-26T02:45:53.942Z,12.20
2019-04-26T02:48:34.761Z,12.20
2019-04-26T02:51:06.191Z,12.30
2019-04-26T02:53:52.733Z,12.40
2019-04-26T02:56:24.349Z,12.30
2019-04-26T02:59:02.025Z,12.20
2019-04-26T03:01:32.299Z,12.50
2019-04-26T03:04:01.242Z,12.40
2019-04-26T03:06:32.749Z,12.20
2019-04-26T03:09:06.826Z,12.50
2019-04-26T03:11:44.242Z,12.50
2019-04-26T03:14:17.628Z,12.50
2019-04-26T03:17:07.068Z,12.60
2019-04-26T03:20:00.792Z,12.50
2019-04-26T03:22:44.741Z,12.40
2019-04-26T03:25:22.190Z,12.20
2019-04-26T03:28:05.754Z,12.00
2019-04-26T03:30:51.124Z,12.20
2019-04-26T03:33:43.531Z,12.40
2019-04-26T03:36:17.827Z,12.40
2019-04-26T03:39:08.448Z,12.10
2019-04-26T03:41:44.531Z,11.90
2019-04-26T03:44:21.930Z,12.10
2019-04-26T03:46:56.420Z,12.00
2019-04-26T03:49:44.179Z,11.90
2019-04-26T03:52:25.003Z,11.90
2019-04-26T03:54:56.686Z,11.90
2019-04-26T03:57:55.258Z,11.80
2019-04-26T04:00:45.040Z,12.00
2019-04-26T04:03:26.932Z,11.90
2019-04-26T04:05:59.365Z,11.80
2019-04-26T04:08:51.819Z,11.90
2019-04-26T04:11:44.322Z,11.90
2019-04-26T04:14:32.191Z,11.70
2019-04-26T04:17:08.566Z,11.60
2019-04-26T04:22:09.832Z,11.80
2019-04-26T04:24:51.319Z,11.80
2019-04-26T04:27:22.860Z,12.00
2019-04-26T04:29:55.584Z,11.70
2019-04-26T04:32:43.821Z,11.90
2019-04-26T04:35:13.911Z,12.00
2019-04-26T04:38:04.324Z,11.90
2019-04-26T04:40:44.845Z,12.10
2019-04-26T04:43:20.592Z,11.70
2019-04-26T04:46:29.677Z,11.50
2019-04-26T04:49:19.371Z,11.50
2019-04-26T04:51:53.547Z,11.80
2019-04-26T04:54:44.573Z,11.60
2019-04-26T04:57:31.574Z,11.50
2019-04-26T05:00:04.809Z,11.80
2019-04-26T05:02:46.948Z,11.80
2019-04-26T05:05:20.082Z,11.60
2019-04-26T05:08:06.562Z,11.80
2019-04-26T05:10:50.357Z,12.00
2019-04-26T05:13:33.365Z,11.90
2019-04-26T05:16:24.200Z,11.90
2019-04-26T05:19:28.930Z,12.10
2019-04-26T05:22:12.773Z,12.00
2019-04-26T05:25:12.026Z,12.00
2019-04-26T05:28:06.427Z,12.00
2019-04-26T05:31:17.230Z,12.20
2019-04-26T05:34:04.584Z,11.90
2019-04-26T05:36:51.202Z,12.20
2019-04-26T05:39:37.726Z,12.20
2019-04-26T05:42:25.858Z,12.50
2019-04-26T05:45:25.381Z,12.60
2019-04-26T05:48:38.953Z,12.70
2019-04-26T05:51:37.810Z,13.00
2019-04-26T05:54:58.199Z,13.30
2019-04-26T05:57:40.014Z,13.40
2019-04-26T06:00:18.882Z,13.50
2019-04-26T06:03:01.336Z,13.70
2019-04-26T06:05:54.413Z,13.80
2019-04-26T06:09:04.749Z,13.90
2019-04-26T06:11:43.601Z,14.10
2019-04-26T06:14:36.222Z,14.30
2019-04-26T06:17:27.458Z,14.40
2019-04-26T06:20:05.950Z,14.60
2019-04-26T06:22:38.312Z,14.50
2019-04-26T06:25:23.058Z,14.40
2019-04-26T06:28:03.254Z,14.50
2019-04-26T06:30:45.342Z,14.60
2019-04-26T06:33:10.962Z,15.10
2019-04-26T06:35:43.438Z,15.10
2019-04-26T06:38:43.773Z,15.40
2019-04-26T06:41:30.127Z,15.70
2019-04-26T06:44:11.908Z,15.70
2019-04-26T06:46:50.782Z,15.90
2019-04-26T06:49:41.682Z,16.20
2019-04-26T06:52:13.186Z,16.10
2019-04-26T06:54:57.687Z,16.40
2019-04-26T06:58:04.929Z,16.30
2019-04-26T07:00:38.270Z,16.70
2019-04-26T07:03:21.683Z,17.10
2019-04-26T07:05:56.465Z,17.10
2019-04-26T07:08:30.867Z,17.30
2019-04-26T07:11:53.300Z,17.20
2019-04-26T07:14:49.955Z,17.40
2019-04-26T07:17:46.894Z,18.20
2019-04-26T07:20:24.689Z,18.90
2019-04-26T07:23:22.618Z,18.90
2019-04-26T07:26:19.790Z,19.20
2019-04-26T07:29:16.967Z,19.60
2019-04-26T07:31:54.178Z,20.20
2019-04-26T07:34:38.950Z,19.40
2019-04-26T07:37:22.258Z,19.40
2019-04-26T07:40:07.420Z,19.70
2019-04-26T07:42:55.622Z,20.10
2019-04-26T07:45:54.106Z,20.50
2019-04-26T07:48:48.060Z,19.70
2019-04-26T07:51:22.486Z,20.50
2019-04-26T07:54:06.675Z,20.20
2019-04-26T07:57:11.349Z,20.80
2019-04-26T08:00:06.644Z,21.20
2019-04-26T08:02:45.594Z,21.70
2019-04-26T08:05:18.278Z,22.50
2019-04-26T08:07:55.898Z,23.30
2019-04-26T08:10:27.139Z,23.70
2019-04-26T08:13:06.049Z,24.40
2019-04-26T08:15:42.047Z,24.50
2019-04-26T08:18:15.260Z,25.90
2019-04-26T08:20:48.495Z,27.00
2019-04-26T08:23:37.877Z,27.20
2019-04-26T08:25:52.504Z,27.30
2019-04-26T08:28:22.475Z,28.10
2019-04-26T08:30:54.317Z,27.20
2019-04-26T08:33:30.375Z,27.80
2019-04-26T08:36:01.850Z,27.80
2019-04-26T08:38:30.931Z,28.70
2019-04-26T08:41:00.375Z,28.50
2019-04-26T08:43:38.957Z,27.40
2019-04-26T08:46:32.315Z,27.00
2019-04-26T08:49:02.145Z,26.30
2019-04-26T08:51:34.594Z,25.60
2019-04-26T08:54:06.109Z,26.50
2019-04-26T08:56:37.613Z,26.20
2019-04-26T08:59:26.232Z,24.10
2019-04-26T09:02:14.212Z,23.50
2019-04-26T09:04:52.045Z,22.90
2019-04-26T09:07:31.230Z,23.30
2019-04-26T09:10:10.599Z,23.60
2019-04-26T09:12:35.182Z,23.90
2019-04-26T09:15:08.622Z,22.80
2019-04-26T09:17:37.023Z,23.40
2019-04-26T09:20:07.868Z,24.60
2019-04-26T09:22:38.018Z,24.20
2019-04-26T09:25:08.823Z,22.70
2019-04-26T09:27:38.893Z,22.30
2019-04-26T09:30:10.255Z,21.60
2019-04-26T09:33:01.686Z,21.60
2019-04-26T09:35:28.490Z,21.50
2019-04-26T09:37:56.902Z,21.70
2019-04-26T09:40:25.393Z,21.10
2019-04-26T09:42:59.691Z,21.30
2019-04-26T09:45:36.147Z,21.20
2019-04-26T09:48:06.291Z,21.40
2019-04-26T09:50:36.346Z,21.00
2019-04-26T09:53:05.011Z,20.70
2019-04-26T09:55:35.576Z,20.70
2019-04-26T09:58:04.419Z,21.00
2019-04-26T10:00:33.000Z,20.90
2019-04-26T10:03:01.482Z,21.20
2019-04-26T10:05:29.933Z,21.30
2019-04-26T10:07:58.432Z,21.20
2019-04-26T10:10:30.901Z,21.50
2019-04-26T10:13:01.119Z,22.80
2019-04-26T10:15:31.175Z,25.10
2019-04-26T10:18:00.390Z,25.70
2019-04-26T10:20:28.802Z,25.80
2019-04-26T10:22:57.255Z,24.30
2019-04-26T10:25:26.076Z,23.30
2019-04-26T10:27:54.522Z,23.20
2019-04-26T10:30:22.931Z,24.70
2019-04-26T10:32:51.597Z,25.30
2019-04-26T10:35:21.804Z,24.50
2019-04-26T10:37:52.489Z,23.10
2019-04-26T10:40:20.694Z,22.10
2019-04-26T10:42:49.126Z,20.60
2019-04-26T10:45:18.299Z,20.00
2019-04-26T10:47:46.709Z,20.00
2019-04-26T10:50:15.282Z,20.10
2019-04-26T10:52:49.550Z,19.80
2019-04-26T10:55:23.059Z,19.90
2019-04-26T10:58:07.974Z,19.30
2019-04-26T11:00:38.256Z,19.50
2019-04-26T11:03:06.830Z,19.70
2019-04-26T11:05:35.380Z,20.00
2019-04-26T11:08:04.179Z,19.70
2019-04-26T11:10:32.770Z,20.00
2019-04-26T11:13:01.184Z,20.80
2019-04-26T11:15:32.702Z,21.00
2019-04-26T11:17:59.892Z,21.00
2019-04-26T11:20:28.302Z,19.80
2019-04-26T11:22:57.196Z,19.60
2019-04-26T11:25:28.174Z,19.30
2019-04-26T11:27:55.890Z,18.80
2019-04-26T11:30:24.329Z,18.50
2019-04-26T11:32:52.750Z,17.80
2019-04-26T11:35:21.181Z,17.40
2019-04-26T11:37:50.693Z,17.30
2019-04-26T11:40:19.972Z,17.70
2019-04-26T11:42:48.402Z,17.50
2019-04-26T11:45:17.159Z,17.50
2019-04-26T11:47:55.871Z,17.60
2019-04-26T11:50:16.468Z,17.40
2019-04-26T11:52:46.132Z,17.40
2019-04-26T11:55:15.006Z,17.30
2019-04-26T11:57:47.010Z,16.90
2019-04-26T12:00:15.854Z,16.80
2019-04-26T12:02:46.421Z,16.60
2019-04-26T12:05:31.154Z,16.60
2019-04-26T12:08:06.935Z,16.00
2019-04-26T12:10:35.403Z,15.80
2019-04-26T12:13:05.914Z,15.70
2019-04-26T12:15:34.052Z,15.70
2019-04-26T12:18:05.646Z,15.60
2019-04-26T12:20:33.102Z,15.60
2019-04-26T12:23:01.533Z,15.60
2019-04-26T12:25:31.182Z,15.70
2019-04-26T12:28:01.848Z,15.90
2019-04-26T12:30:30.079Z,15.40
2019-04-26T12:32:58.532Z,15.40
2019-04-26T12:35:29.861Z,15.10
2019-04-26T12:37:57.092Z,15.20
2019-04-26T12:40:26.067Z,15.10
2019-04-26T12:42:54.572Z,14.90
2019-04-26T12:45:24.624Z,14.70
2019-04-26T12:47:57.501Z,15.00
2019-04-26T12:50:29.379Z,14.90
2019-04-26T12:52:57.139Z,14.40
2019-04-26T12:55:25.975Z,14.10
2019-04-26T12:57:54.402Z,14.30
2019-04-26T13:00:27.006Z,14.50
2019-04-26T13:02:55.799Z,14.40
2019-04-26T13:05:24.319Z,14.20
2019-04-26T13:07:53.829Z,14.30
2019-04-26T13:10:26.937Z,14.30
2019-04-26T13:13:08.713Z,14.50
2019-04-26T13:16:03.977Z,14.30
2019-04-26T13:18:32.497Z,14.10
2019-04-26T13:21:03.140Z,14.30
2019-04-26T13:23:31.427Z,13.90
2019-04-26T13:26:01.443Z,14.10
2019-04-26T13:28:30.124Z,13.90
2019-04-26T13:30:59.570Z,13.80
2019-04-26T13:33:29.176Z,13.90
2019-04-26T13:36:04.916Z,14.00
2019-04-26T13:38:28.050Z,14.00
2019-04-26T13:40:59.703Z,13.90
2019-04-26T13:43:28.451Z,13.90
2019-04-26T13:46:10.266Z,13.80
2019-04-26T13:48:43.544Z,13.90
2019-04-26T13:51:14.640Z,13.50
2019-04-26T13:53:43.067Z,13.60
2019-04-26T13:56:11.571Z,13.60
2019-04-26T13:58:40.138Z,13.50
2019-04-26T14:01:10.197Z,13.70
2019-04-26T14:03:38.694Z,13.70
2019-04-26T14:06:07.231Z,13.40
2019-04-26T14:08:35.674Z,13.40
2019-04-26T14:11:04.718Z,13.30
2019-04-26T14:13:33.187Z,13.20
2019-04-26T14:16:01.679Z,13.30
2019-04-26T14:18:30.184Z,13.30
2019-04-26T14:21:00.005Z,13.10
2019-04-26T14:23:49.441Z,13.10
2019-04-26T14:26:18.036Z,13.00
2019-04-26T14:28:46.528Z,12.80
2019-04-26T14:31:16.435Z,12.60
2019-04-26T14:33:45.324Z,12.90
2019-04-26T14:36:17.873Z,13.00
2019-04-26T14:38:43.885Z,12.90
2019-04-26T14:41:13.470Z,12.80
2019-04-26T14:43:42.643Z,12.50
2019-04-26T14:46:14.536Z,12.40
2019-04-26T14:48:44.679Z,12.50
2019-04-26T14:51:12.298Z,12.40
2019-04-26T14:53:41.530Z,12.20
2019-04-26T14:56:10.114Z,12.20
2019-04-26T14:58:38.534Z,12.10
2019-04-26T15:01:08.587Z,12.00
2019-04-26T15:03:38.674Z,12.10
2019-04-26T15:06:16.746Z,11.90
2019-04-26T15:08:47.383Z,11.90
2019-04-26T15:11:14.673Z,11.70
2019-04-26T15:13:43.757Z,11.60
2019-04-26T15:16:14.222Z,11.60
2019-04-26T15:18:42.757Z,11.70
2019-04-26T15:21:12.739Z,11.60
2019-04-26T15:23:41.559Z,11.40
2019-04-26T15:26:09.977Z,11.40
2019-04-26T15:28:38.580Z,11.40
2019-04-26T15:31:07.155Z,11.50
2019-04-26T15:33:36.040Z,11.50
2019-04-26T15:36:06.384Z,11.40
2019-04-26T15:38:41.510Z,11.50
2019-04-26T15:41:11.566Z,11.40
2019-04-26T15:43:42.875Z,11.40
2019-04-26T15:46:21.875Z,11.40
2019-04-26T15:49:05.125Z,11.40
2019-04-26T15:51:35.351Z,11.10
2019-04-26T15:54:03.864Z,11.10
2019-04-26T15:56:32.536Z,11.10
2019-04-26T15:59:02.568Z,11.10
2019-04-26T16:01:32.546Z,11.10
2019-04-26T16:04:05.602Z,11.00
2019-04-26T16:06:32.214Z,11.00
2019-04-26T16:09:02.219Z,11.10
2019-04-26T16:11:30.862Z,11.10
2019-04-26T16:13:59.300Z,11.00
2019-04-26T16:16:29.146Z,11.00
2019-04-26T16:18:57.932Z,10.70
2019-04-26T16:21:26.349Z,10.90
2019-04-26T16:23:55.232Z,10.80
2019-04-26T16:26:23.958Z,10.90
2019-04-26T16:29:05.851Z,10.90
2019-04-26T16:34:16.911Z,10.70
2019-04-26T16:36:45.474Z,10.50
2019-04-26T16:39:14.370Z,10.50
2019-04-26T16:41:42.789Z,10.40
2019-04-26T16:44:12.883Z,10.50
2019-04-26T16:46:43.502Z,10.40
2019-04-26T16:49:14.095Z,10.40
2019-04-26T16:51:43.580Z,10.10
2019-04-26T16:54:20.675Z,10.00
2019-04-26T16:56:43.920Z,9.90
2019-04-26T16:59:14.205Z,10.20
2019-04-26T17:01:47.144Z,10.00
2019-04-26T17:04:14.194Z,9.80
2019-04-26T17:06:44.802Z,9.70
2019-04-26T17:09:14.336Z,9.90
2019-04-26T17:09:51.041Z,10.90
2019-04-26T17:11:43.520Z,9.90
2019-04-26T17:14:13.217Z,9.80
2019-04-26T17:16:42.372Z,9.80
2019-04-26T17:19:13.559Z,9.70
2019-04-26T17:21:43.946Z,9.60
2019-04-26T17:24:26.173Z,9.70
2019-04-26T17:26:58.975Z,9.50
2019-04-26T17:29:27.390Z,9.60
2019-04-26T17:31:56.054Z,9.70
2019-04-26T17:34:28.937Z,9.80
2019-04-26T17:36:54.810Z,9.80
2019-04-26T17:39:23.265Z,9.70
2019-04-26T17:41:54.230Z,9.80
2019-04-26T17:44:26.692Z,9.70
2019-04-26T17:46:56.343Z,9.50
2019-04-26T17:49:27.266Z,9.60
2019-04-26T17:51:58.079Z,9.70
2019-04-26T17:54:41.814Z,9.60
2019-04-26T17:56:52.546Z,9.70
2019-04-26T17:59:32.577Z,9.80
2019-04-26T18:01:57.316Z,9.70
2019-04-26T18:04:31.935Z,9.60
2019-04-26T18:06:57.791Z,9.80
2019-04-26T18:09:40.326Z,9.80
2019-04-26T18:11:55.362Z,9.80
2019-04-26T18:14:29.913Z,9.90
2019-04-26T18:16:57.117Z,10.20
2019-04-26T18:19:30.399Z,10.10
2019-04-26T18:22:00.910Z,10.10
2019-04-26T18:24:32.241Z,9.90
2019-04-26T18:27:00.623Z,9.90
2019-04-26T18:29:30.357Z,9.80
2019-04-26T18:31:59.136Z,9.80
2019-04-26T18:34:30.596Z,9.90
2019-04-26T18:37:01.990Z,9.90
2019-04-26T18:39:29.760Z,10.00
2019-04-26T18:41:58.419Z,9.90
2019-04-26T18:44:36.302Z,9.90
2019-04-26T18:47:09.014Z,10.00
2019-04-26T18:49:37.470Z,10.20
2019-04-26T18:52:08.753Z,10.00
2019-04-26T18:54:37.666Z,10.00
2019-04-26T18:57:09.577Z,10.20
2019-04-26T18:59:36.450Z,10.10
2019-04-26T19:02:05.174Z,10.20
2019-04-26T19:04:33.799Z,10.00
2019-04-26T19:07:02.376Z,9.90
2019-04-26T19:09:31.084Z,10.10
2019-04-26T19:12:01.742Z,10.00
2019-04-26T19:18:31.425Z,9.90
2019-04-26T19:21:03.117Z,9.70
2019-04-26T19:23:32.120Z,9.80
2019-04-26T19:26:01.763Z,9.80
2019-04-26T19:28:30.410Z,9.90
2019-04-26T19:30:59.193Z,9.60
2019-04-26T19:33:27.615Z,9.80
2019-04-26T19:35:56.034Z,9.80
2019-04-26T19:38:24.438Z,9.80
2019-04-26T19:40:52.906Z,10.00
2019-04-26T19:43:30.412Z,10.00
2019-04-26T19:48:37.926Z,10.00
2019-04-26T19:51:07.986Z,10.10
2019-04-26T19:53:47.301Z,9.90
2019-04-26T19:56:24.621Z,9.80
2019-04-26T19:58:57.255Z,9.70
2019-04-26T20:01:23.289Z,9.70
2019-04-26T20:03:52.113Z,9.60
2019-04-26T20:06:20.762Z,9.80
2019-04-26T20:08:49.640Z,9.80
2019-04-26T20:11:20.092Z,9.70
2019-04-26T20:13:51.802Z,9.80
2019-04-26T20:16:18.747Z,9.80
2019-04-26T20:18:47.187Z,9.90
2019-04-26T20:21:15.661Z,9.90
2019-04-26T20:23:47.471Z,9.90
2019-04-26T20:26:14.399Z,9.80
2019-04-26T20:28:42.814Z,9.90
2019-04-26T20:31:21.748Z,10.20
2019-04-26T20:33:50.154Z,9.90
2019-04-26T20:36:18.626Z,9.70
2019-04-26T20:38:47.605Z,9.80
2019-04-26T20:41:16.108Z,9.90
2019-04-26T20:43:52.324Z,9.80
2019-04-26T20:46:15.636Z,9.90
2019-04-26T20:48:44.599Z,10.00
2019-04-26T20:51:13.188Z,10.10
2019-04-26T20:53:43.658Z,10.00
2019-04-26T20:58:43.295Z,9.70
2019-04-26T21:01:12.508Z,9.80
2019-04-26T21:03:42.941Z,9.80
2019-04-26T21:06:09.274Z,9.90
2019-04-26T21:08:37.684Z,9.90
2019-04-26T21:11:06.163Z,9.90
2019-04-26T21:13:34.620Z,9.80
2019-04-26T21:16:10.261Z,9.80
2019-04-26T21:18:39.823Z,9.90
2019-04-26T21:21:06.047Z,9.90
2019-04-26T21:23:39.642Z,10.00
2019-04-26T21:26:07.070Z,10.20
2019-04-26T21:28:38.038Z,10.10
2019-04-26T21:31:14.829Z,10.00
2019-04-26T21:33:47.620Z,10.20
2019-04-26T21:36:40.881Z,10.20
2019-04-26T21:39:24.679Z,10.20
2019-04-26T21:41:54.836Z,10.20
2019-04-26T21:44:23.241Z,10.20
2019-04-26T21:46:56.096Z,10.40
2019-04-26T21:49:22.236Z,10.40
2019-04-26T21:51:53.912Z,10.20
2019-04-26T21:54:24.865Z,10.00
2019-04-26T21:56:53.731Z,10.10
2019-04-26T21:59:22.301Z,10.10
2019-04-26T22:01:52.336Z,10.30
2019-04-26T22:04:21.049Z,10.20
2019-04-26T22:06:49.458Z,10.10
2019-04-26T22:09:28.524Z,10.10
2019-04-26T22:11:56.487Z,10.10
2019-04-26T22:14:26.666Z,10.10
2019-04-26T22:17:02.219Z,10.10
2019-04-26T22:19:32.521Z,10.10
2019-04-26T22:22:11.928Z,10.10
2019-04-26T22:24:43.445Z,10.20
2019-04-26T22:27:13.229Z,9.90
2019-04-26T22:29:43.487Z,10.10
2019-04-26T22:32:16.001Z,10.00
2019-04-26T22:34:44.882Z,10.20
2019-04-26T22:37:12.953Z,10.00
2019-04-26T22:39:44.404Z,10.00
2019-04-26T22:42:13.805Z,10.00
2019-04-26T22:44:44.045Z,10.20
2019-04-26T22:47:16.924Z,10.10
2019-04-26T22:49:45.482Z,10.00
2019-04-26T22:52:16.358Z,10.10
2019-04-26T22:54:46.533Z,10.20
2019-04-26T22:57:16.171Z,10.10
2019-04-26T22:59:49.752Z,10.10
2019-04-26T23:02:18.417Z,10.20
2019-04-26T23:04:46.602Z,10.10
2019-04-26T23:07:18.423Z,10.20
2019-04-26T23:09:51.811Z,10.10
2019-04-26T23:12:25.159Z,10.20
2019-04-26T23:14:58.415Z,10.20
2019-04-26T23:17:31.341Z,10.10
2019-04-26T23:20:00.338Z,10.00
2019-04-26T23:22:30.881Z,9.80
2019-04-26T23:24:59.222Z,9.90
2019-04-26T23:27:27.636Z,9.90
2019-04-26T23:29:58.288Z,9.70
2019-04-26T23:32:26.378Z,9.90
2019-04-26T23:34:58.261Z,9.90
2019-04-26T23:37:27.649Z,10.00
2019-04-26T23:39:55.211Z,10.10
2019-04-26T23:42:25.072Z,9.70
2019-04-26T23:44:53.672Z,9.60
2019-04-26T23:47:23.692Z,9.70
2019-04-26T23:49:53.945Z,9.80
2019-04-26T23:52:23.022Z,9.60
2019-04-26T23:54:53.016Z,9.60
2019-04-26T23:57:21.502Z,9.80
2019-04-26T23:59:51.027Z,9.70
